createdAt,value
2018-05-03T00:00:27.150Z,35.83
2018-05-03T00:02:57.771Z,35.84
2018-05-03T00:05:28.414Z,35.83
2018-05-03T00:07:58.826Z,35.89
2018-05-03T00:10:29.466Z,35.81
2018-05-03T00:12:59.904Z,35.81
2018-05-03T00:15:30.345Z,35.86
2018-05-03T00:18:00.954Z,35.87
2018-05-03T00:20:31.374Z,35.78
2018-05-03T00:23:01.979Z,35.86
2018-05-03T00:25:32.262Z,35.81
2018-05-03T00:28:02.674Z,35.85
2018-05-03T00:30:33.139Z,35.80
2018-05-03T00:33:04.338Z,35.98
2018-05-03T00:35:34.782Z,35.94
2018-05-03T00:38:05.394Z,35.92
2018-05-03T00:40:36.028Z,35.93
2018-05-03T00:43:06.639Z,35.90
2018-05-03T00:45:38.077Z,35.93
2018-05-03T00:48:08.678Z,35.95
2018-05-03T00:50:39.118Z,36.00
2018-05-03T00:53:09.545Z,35.93
2018-05-03T00:55:39.986Z,35.95
2018-05-03T00:58:10.598Z,35.90
2018-05-03T01:00:41.331Z,35.99
2018-05-03T01:03:11.754Z,35.93
2018-05-03T01:05:42.386Z,35.92
2018-05-03T01:08:12.814Z,35.87
2018-05-03T01:10:43.251Z,35.95
2018-05-03T01:13:13.863Z,35.88
2018-05-03T01:15:44.137Z,35.97
2018-05-03T01:18:15.319Z,35.99
2018-05-03T01:20:45.774Z,35.99
2018-05-03T01:23:16.393Z,35.91
2018-05-03T01:25:46.827Z,36.18
2018-05-03T01:28:17.247Z,36.12
2018-05-03T01:30:47.699Z,36.12
2018-05-03T01:33:18.315Z,36.18
2018-05-03T01:36:05.729Z,36.18
2018-05-03T01:38:36.154Z,36.16
2018-05-03T01:41:06.793Z,36.13
2018-05-03T01:43:37.226Z,36.20
2018-05-03T01:46:08.082Z,36.13
2018-05-03T01:48:38.502Z,36.09
2018-05-03T01:51:09.129Z,36.20
2018-05-03T01:53:39.740Z,36.09
2018-05-03T01:56:11.135Z,36.13
2018-05-03T01:58:41.751Z,36.21
2018-05-03T02:01:12.145Z,36.13
2018-05-03T02:03:43.521Z,36.11
2018-05-03T02:06:14.152Z,36.15
2018-05-03T02:08:44.566Z,36.18
2018-05-03T02:11:15.011Z,36.07
2018-05-03T02:13:45.415Z,36.13
2018-05-03T02:16:15.857Z,36.04
2018-05-03T02:18:46.474Z,36.06
2018-05-03T02:21:16.917Z,36.11
2018-05-03T02:23:47.541Z,36.12
2018-05-03T02:26:17.984Z,36.06
2018-05-03T02:28:48.799Z,36.06
2018-05-03T02:31:20.002Z,36.08
2018-05-03T02:33:50.616Z,36.08
2018-05-03T02:36:21.060Z,36.05
2018-05-03T02:38:51.670Z,36.11
2018-05-03T02:41:22.110Z,36.15
2018-05-03T02:43:52.727Z,36.12
2018-05-03T02:46:23.174Z,36.03
2018-05-03T02:48:53.798Z,36.02
2018-05-03T02:51:24.254Z,35.93
2018-05-03T02:53:54.684Z,36.04
2018-05-03T02:56:25.131Z,36.03
2018-05-03T02:59:12.529Z,36.23
2018-05-03T03:01:58.122Z,36.15
2018-05-03T03:04:50.804Z,36.29
2018-05-03T03:21:51.165Z,36.22
2018-05-03T03:24:40.634Z,35.97
2018-05-03T03:27:37.138Z,36.04
2018-05-03T03:30:29.954Z,36.09
2018-05-03T03:46:41.315Z,36.02
2018-05-03T03:49:11.955Z,36.12
2018-05-03T03:51:42.563Z,36.03
2018-05-03T03:54:13.022Z,36.13
2018-05-03T03:56:43.635Z,36.09
2018-05-03T03:59:14.135Z,36.02
2018-05-03T04:01:44.893Z,35.98
2018-05-03T04:04:15.338Z,35.96
2018-05-03T04:06:45.758Z,35.95
2018-05-03T04:09:17.165Z,35.98
2018-05-03T04:11:47.578Z,35.88
2018-05-03T04:14:18.846Z,35.84
2018-05-03T04:16:49.283Z,35.87
2018-05-03T04:19:36.824Z,35.87
2018-05-03T04:22:24.671Z,35.85
2018-05-03T04:25:13.262Z,35.79
2018-05-03T04:27:43.870Z,35.82
2018-05-03T04:30:14.318Z,35.69
2018-05-03T04:32:44.749Z,35.78
2018-05-03T04:35:15.182Z,35.62
2018-05-03T04:37:45.794Z,35.80
2018-05-03T04:40:16.427Z,35.54
2018-05-03T04:42:47.042Z,35.52
2018-05-03T04:45:17.495Z,35.62
2018-05-03T04:47:47.920Z,35.63
2018-05-03T04:50:18.122Z,35.71
2018-05-03T04:52:49.494Z,35.65
2018-05-03T04:55:20.122Z,35.58
2018-05-03T04:57:51.502Z,35.56
2018-05-03T05:00:22.139Z,35.56
2018-05-03T05:02:52.751Z,35.49
2018-05-03T05:05:23.203Z,35.51
2018-05-03T05:07:53.823Z,35.56
2018-05-03T05:10:24.471Z,35.39
2018-05-03T05:12:55.082Z,35.53
2018-05-03T05:15:25.524Z,35.51
2018-05-03T05:17:56.212Z,35.43
2018-05-03T05:20:27.751Z,35.37
2018-05-03T05:22:58.359Z,35.36
2018-05-03T05:25:28.800Z,35.26
2018-05-03T05:27:59.230Z,35.07
2018-05-03T05:30:29.867Z,35.24
2018-05-03T05:33:00.474Z,35.11
2018-05-03T05:35:30.907Z,34.97
2018-05-03T05:38:01.517Z,35.19
2018-05-03T05:40:31.962Z,34.96
2018-05-03T05:43:02.151Z,34.81
2018-05-03T05:45:32.591Z,34.87
2018-05-03T05:48:03.042Z,34.17
2018-05-03T05:50:33.142Z,33.65
2018-05-03T05:53:03.599Z,33.72
2018-05-03T05:55:33.697Z,33.11
2018-05-03T05:58:04.326Z,32.80
2018-05-03T06:00:34.986Z,32.29
2018-05-03T06:03:05.058Z,31.59
2018-05-03T06:05:35.780Z,31.69
2018-05-03T06:08:05.862Z,31.28
2018-05-03T06:10:35.954Z,31.59
2018-05-03T06:13:06.380Z,31.81
2018-05-03T06:15:36.811Z,32.86
2018-05-03T06:18:08.204Z,33.58
2018-05-03T06:20:38.660Z,32.85
2018-05-03T06:23:08.579Z,32.34
2018-05-03T06:25:38.679Z,32.07
2018-05-03T06:28:09.394Z,31.85
2018-05-03T06:30:40.842Z,31.59
2018-05-03T06:33:12.296Z,31.44
2018-05-03T06:35:43.779Z,31.43
2018-05-03T06:38:14.239Z,31.25
2018-05-03T06:40:44.668Z,30.99
2018-05-03T06:43:15.140Z,31.02
2018-05-03T06:45:46.014Z,30.83
2018-05-03T06:48:16.390Z,31.02
2018-05-03T06:50:47.776Z,30.96
2018-05-03T06:53:18.647Z,30.77
2018-05-03T06:55:49.843Z,31.05
2018-05-03T06:58:19.923Z,31.03
2018-05-03T07:00:50.351Z,31.22
2018-05-03T07:03:20.963Z,31.33
2018-05-03T07:05:51.575Z,31.44
2018-05-03T07:08:21.967Z,31.80
2018-05-03T07:10:52.622Z,33.30
2018-05-03T07:13:22.704Z,33.57
2018-05-03T07:15:53.895Z,34.64
2018-05-03T07:18:24.526Z,34.29
2018-05-03T07:20:54.626Z,34.36
2018-05-03T07:23:25.258Z,34.40
2018-05-03T07:25:55.943Z,34.37
2018-05-03T07:28:26.598Z,34.53
2018-05-03T07:30:57.024Z,34.50
2018-05-03T07:33:27.699Z,34.71
2018-05-03T07:35:58.382Z,34.37
2018-05-03T07:38:28.815Z,34.78
2018-05-03T07:40:59.514Z,34.72
2018-05-03T07:43:30.330Z,34.85
2018-05-03T07:46:00.996Z,34.81
2018-05-03T07:48:31.731Z,34.58
2018-05-03T07:51:02.647Z,34.62
2018-05-03T07:53:33.430Z,34.61
2018-05-03T07:56:04.159Z,34.56
2018-05-03T07:58:34.817Z,34.63
2018-05-03T08:01:05.654Z,34.57
2018-05-03T08:03:36.330Z,34.59
2018-05-03T08:06:07.033Z,34.32
2018-05-03T08:08:37.700Z,34.29
2018-05-03T08:11:08.397Z,34.37
2018-05-03T08:13:39.860Z,34.46
2018-05-03T08:16:11.334Z,34.42
2018-05-03T08:18:41.804Z,34.17
2018-05-03T08:21:12.272Z,34.05
2018-05-03T08:23:42.922Z,34.24
2018-05-03T08:26:14.405Z,34.19
2018-05-03T08:28:45.098Z,34.10
2018-05-03T08:31:15.738Z,34.18
2018-05-03T08:33:46.399Z,34.25
2018-05-03T08:36:17.098Z,34.19
2018-05-03T08:38:48.543Z,34.18
2018-05-03T08:41:19.247Z,34.15
2018-05-03T08:43:49.891Z,34.08
2018-05-03T08:46:20.607Z,34.05
2018-05-03T08:48:51.290Z,34.06
2018-05-03T08:51:22.763Z,34.02
2018-05-03T08:53:54.199Z,33.99
2018-05-03T08:56:24.867Z,33.85
2018-05-03T08:58:55.546Z,33.83
2018-05-03T09:01:26.304Z,33.79
2018-05-03T09:03:57.847Z,33.69
2018-05-03T09:06:28.295Z,33.67
2018-05-03T09:08:58.419Z,33.74
2018-05-03T09:11:28.843Z,33.71
2018-05-03T09:13:59.256Z,33.68
2018-05-03T09:16:29.907Z,33.67
2018-05-03T09:19:00.310Z,33.64
2018-05-03T09:21:30.759Z,33.56
2018-05-03T09:24:01.403Z,33.61
2018-05-03T09:26:32.082Z,33.59
2018-05-03T09:29:03.487Z,33.69
2018-05-03T09:31:33.946Z,33.51
2018-05-03T09:34:05.140Z,33.58
2018-05-03T09:36:35.995Z,33.57
2018-05-03T09:39:07.511Z,33.46
2018-05-03T09:41:38.434Z,33.58
2018-05-03T09:44:08.514Z,33.50
2018-05-03T09:46:38.939Z,33.66
2018-05-03T09:49:09.007Z,33.56
2018-05-03T09:51:39.115Z,33.54
2018-05-03T09:54:10.319Z,33.55
2018-05-03T09:56:41.178Z,33.55
2018-05-03T09:59:11.891Z,33.60
2018-05-03T10:01:42.958Z,33.60
2018-05-03T10:04:13.651Z,33.61
2018-05-03T10:06:43.730Z,33.58
2018-05-03T10:09:14.145Z,33.58
2018-05-03T10:11:44.600Z,33.56
2018-05-03T10:14:14.673Z,33.60
2018-05-03T10:16:45.108Z,33.53
2018-05-03T10:19:15.935Z,33.55
2018-05-03T10:21:46.043Z,33.59
2018-05-03T10:24:16.747Z,33.62
2018-05-03T10:26:46.866Z,33.61
2018-05-03T10:29:17.273Z,33.60
2018-05-03T10:31:47.388Z,33.62
2018-05-03T10:34:18.131Z,33.67
2018-05-03T10:36:48.271Z,33.57
2018-05-03T10:39:18.666Z,33.73
2018-05-03T10:41:48.766Z,33.66
2018-05-03T10:44:19.192Z,33.70
2018-05-03T10:46:49.827Z,33.71
2018-05-03T10:49:20.219Z,33.71
2018-05-03T10:51:50.316Z,33.76
2018-05-03T10:54:20.728Z,33.71
2018-05-03T10:56:50.816Z,33.70
2018-05-03T10:59:21.220Z,33.73
2018-05-03T11:01:51.322Z,33.75
2018-05-03T11:04:21.726Z,33.71
2018-05-03T11:06:52.199Z,33.64
2018-05-03T11:09:22.262Z,33.65
2018-05-03T11:11:52.691Z,33.70
2018-05-03T11:14:22.753Z,33.76
2018-05-03T11:16:53.970Z,33.74
2018-05-03T11:19:24.048Z,33.68
2018-05-03T11:21:54.478Z,33.71
2018-05-03T11:24:24.551Z,33.63
2018-05-03T11:26:54.995Z,33.61
2018-05-03T11:29:25.383Z,33.58
2018-05-03T11:31:56.115Z,33.53
2018-05-03T11:34:26.181Z,33.54
2018-05-03T11:36:57.279Z,33.51
2018-05-03T11:39:27.509Z,33.61
2018-05-03T11:41:58.236Z,33.52
2018-05-03T11:44:28.299Z,33.58
2018-05-03T11:46:58.754Z,33.46
2018-05-03T11:49:28.831Z,33.54
2018-05-03T11:51:59.254Z,33.43
2018-05-03T11:54:29.329Z,33.46
2018-05-03T11:56:59.416Z,33.53
2018-05-03T11:59:29.891Z,33.55
2018-05-03T12:02:00.104Z,33.60
2018-05-03T12:04:30.541Z,33.41
2018-05-03T12:07:00.997Z,33.47
2018-05-03T12:09:31.054Z,33.50
2018-05-03T12:12:01.143Z,33.55
2018-05-03T12:14:31.199Z,33.41
2018-05-03T12:17:01.314Z,33.56
2018-05-03T12:19:31.707Z,33.50
2018-05-03T12:22:02.158Z,33.47
2018-05-03T12:24:32.222Z,33.43
2018-05-03T12:27:02.652Z,33.32
2018-05-03T12:29:32.727Z,33.31
2018-05-03T12:32:03.170Z,33.31
2018-05-03T12:34:34.363Z,33.36
2018-05-03T12:37:05.222Z,33.34
2018-05-03T12:39:35.618Z,33.19
2018-05-03T12:42:05.699Z,33.32
2018-05-03T12:44:36.092Z,33.30
2018-05-03T12:47:06.707Z,33.12
2018-05-03T12:49:37.307Z,33.16
2018-05-03T12:52:07.914Z,33.17
2018-05-03T12:54:38.465Z,33.16
2018-05-03T12:57:09.098Z,33.06
2018-05-03T12:59:39.703Z,33.13
2018-05-03T13:02:10.310Z,33.03
2018-05-03T13:04:41.648Z,33.06
2018-05-03T13:07:12.223Z,33.05
2018-05-03T13:09:42.642Z,33.00
2018-05-03T13:12:13.278Z,33.14
2018-05-03T13:14:43.688Z,33.29
2018-05-03T13:17:14.800Z,33.07
2018-05-03T13:19:45.652Z,33.07
2018-05-03T13:22:16.405Z,33.00
2018-05-03T13:24:46.498Z,33.11
2018-05-03T13:27:17.202Z,33.14
2018-05-03T13:29:48.386Z,33.10
2018-05-03T13:32:19.015Z,33.16
2018-05-03T13:34:49.620Z,33.00
2018-05-03T13:37:20.235Z,33.22
2018-05-03T13:39:50.826Z,33.09
2018-05-03T13:42:21.235Z,33.04
2018-05-03T13:44:52.400Z,33.19
2018-05-03T13:47:23.059Z,33.23
2018-05-03T13:49:53.846Z,33.22
2018-05-03T13:52:24.287Z,33.24
2018-05-03T13:54:54.385Z,33.19
2018-05-03T13:57:25.072Z,33.27
2018-05-03T13:59:57.180Z,33.19
2018-05-03T14:02:28.379Z,33.04
2018-05-03T14:04:58.993Z,33.15
2018-05-03T14:07:29.641Z,33.05
2018-05-03T14:10:00.668Z,33.16
2018-05-03T14:12:31.380Z,33.17
2018-05-03T14:15:01.993Z,33.07
2018-05-03T14:17:32.070Z,33.10
2018-05-03T14:20:02.508Z,33.08
2018-05-03T14:22:33.139Z,33.13
2018-05-03T14:25:03.723Z,33.13
2018-05-03T14:27:34.181Z,33.09
2018-05-03T14:30:04.608Z,33.05
2018-05-03T14:32:35.233Z,33.11
2018-05-03T14:35:05.664Z,33.14
2018-05-03T14:37:36.298Z,33.22
2018-05-03T14:40:06.406Z,33.18
2018-05-03T14:42:36.842Z,33.20
2018-05-03T14:45:07.499Z,33.20
2018-05-03T14:47:38.127Z,33.12
2018-05-03T14:50:08.582Z,33.28
2018-05-03T14:52:39.198Z,33.31
2018-05-03T14:55:09.856Z,33.26
2018-05-03T14:57:40.647Z,33.30
2018-05-03T15:00:11.261Z,33.34
2018-05-03T15:02:42.660Z,33.39
2018-05-03T15:05:13.267Z,33.37
2018-05-03T15:07:43.917Z,33.42
2018-05-03T15:10:14.338Z,33.45
2018-05-03T15:12:44.997Z,33.51
2018-05-03T15:15:15.800Z,33.50
2018-05-03T15:17:46.459Z,33.53
2018-05-03T15:20:17.075Z,33.54
2018-05-03T15:22:47.531Z,33.58
2018-05-03T15:25:17.953Z,33.65
2018-05-03T15:27:48.405Z,33.63
2018-05-03T15:30:18.826Z,33.71
2018-05-03T15:32:48.945Z,33.72
2018-05-03T15:35:18.882Z,33.69
2018-05-03T15:37:49.867Z,33.64
2018-05-03T15:40:20.533Z,33.73
2018-05-03T15:42:51.175Z,33.72
2018-05-03T15:45:21.786Z,33.77
2018-05-03T15:47:52.437Z,33.82
2018-05-03T15:50:23.046Z,33.81
2018-05-03T15:52:53.506Z,33.68
2018-05-03T15:55:24.119Z,33.72
2018-05-03T15:57:54.760Z,33.76
2018-05-03T16:00:25.375Z,33.78
2018-05-03T16:02:56.012Z,33.75
2018-05-03T16:05:26.618Z,33.74
2018-05-03T16:07:57.262Z,33.77
2018-05-03T16:10:27.865Z,33.80
2018-05-03T16:12:59.267Z,33.76
2018-05-03T16:15:29.880Z,33.77
2018-05-03T16:18:00.321Z,33.69
2018-05-03T16:20:31.022Z,33.67
2018-05-03T16:23:01.568Z,33.73
2018-05-03T16:25:32.201Z,33.70
2018-05-03T16:28:02.672Z,33.73
2018-05-03T16:30:33.901Z,33.72
2018-05-03T16:33:07.676Z,33.81
2018-05-03T16:35:38.083Z,33.78
2018-05-03T16:38:09.486Z,33.92
2018-05-03T16:40:40.108Z,33.85
2018-05-03T16:43:10.743Z,33.88
2018-05-03T16:45:41.359Z,33.75
2018-05-03T16:48:11.995Z,33.72
2018-05-03T16:50:42.419Z,33.92
2018-05-03T16:53:13.054Z,33.92
2018-05-03T16:55:43.671Z,33.87
2018-05-03T16:58:15.075Z,33.83
2018-05-03T17:00:45.673Z,33.84
2018-05-03T17:03:16.315Z,33.83
2018-05-03T17:05:46.750Z,33.90
2018-05-03T17:08:17.391Z,33.89
2018-05-03T17:10:47.996Z,34.13
2018-05-03T17:13:18.635Z,34.05
2018-05-03T17:15:49.255Z,34.16
2018-05-03T17:18:19.907Z,34.19
2018-05-03T17:20:50.341Z,34.93
2018-05-03T17:23:21.004Z,34.60
2018-05-03T17:25:51.087Z,34.90
2018-05-03T17:28:21.756Z,35.19
2018-05-03T17:30:51.840Z,35.55
2018-05-03T17:33:22.571Z,35.82
2018-05-03T17:35:52.655Z,35.69
2018-05-03T17:38:22.787Z,36.29
2018-05-03T17:40:53.222Z,35.88
2018-05-03T17:43:23.642Z,35.99
2018-05-03T17:45:53.707Z,35.96
2018-05-03T17:48:24.142Z,36.40
2018-05-03T17:50:54.532Z,36.04
2018-05-03T17:53:24.647Z,36.13
2018-05-03T17:55:54.730Z,36.35
2018-05-03T17:58:24.842Z,36.34
2018-05-03T18:00:55.572Z,36.39
2018-05-03T18:03:26.202Z,35.97
2018-05-03T18:05:56.775Z,36.31
2018-05-03T18:08:27.375Z,36.21
2018-05-03T18:10:57.946Z,36.67
2018-05-03T18:13:28.055Z,36.62
2018-05-03T18:15:58.690Z,36.44
2018-05-03T18:18:28.790Z,36.63
2018-05-03T18:20:59.495Z,36.36
2018-05-03T18:23:30.118Z,36.81
2018-05-03T18:26:01.502Z,36.48
2018-05-03T18:28:32.140Z,36.18
2018-05-03T18:31:02.763Z,36.42
2018-05-03T18:33:33.397Z,36.42
2018-05-03T18:36:03.812Z,36.53
2018-05-03T18:38:34.442Z,36.53
2018-05-03T18:41:05.091Z,36.36
2018-05-03T18:43:35.184Z,36.23
2018-05-03T18:46:05.799Z,36.32
2018-05-03T18:48:37.205Z,36.25
2018-05-03T18:51:07.914Z,36.23
2018-05-03T18:53:38.311Z,36.26
2018-05-03T18:56:09.712Z,36.12
2018-05-03T18:58:40.410Z,36.27
2018-05-03T19:01:10.896Z,36.19
2018-05-03T19:03:41.679Z,36.21
2018-05-03T19:06:12.294Z,36.17
2018-05-03T19:08:43.712Z,36.26
2018-05-03T19:11:14.326Z,36.39
2018-05-03T19:13:44.963Z,36.65
2018-05-03T19:16:15.575Z,36.52
2018-05-03T19:18:46.003Z,36.47
2018-05-03T19:21:16.595Z,36.24
2018-05-03T19:23:48.107Z,36.55
2018-05-03T19:26:20.367Z,36.44
2018-05-03T19:28:51.010Z,36.49
2018-05-03T19:31:21.631Z,36.36
2018-05-03T19:33:52.120Z,36.27
2018-05-03T19:36:22.221Z,36.29
2018-05-03T19:38:52.739Z,36.54
2018-05-03T19:41:23.461Z,36.27
2018-05-03T19:43:54.084Z,36.25
2018-05-03T19:46:24.726Z,36.38
2018-05-03T19:48:55.364Z,36.58
2018-05-03T19:51:25.777Z,36.40
2018-05-03T19:53:56.422Z,36.58
2018-05-03T19:56:27.035Z,36.40
2018-05-03T19:58:57.484Z,36.32
2018-05-03T20:01:28.096Z,36.21
2018-05-03T20:03:58.730Z,36.30
2018-05-03T20:06:29.095Z,36.24
2018-05-03T20:08:59.739Z,36.62
2018-05-03T20:11:31.667Z,36.22
2018-05-03T20:14:02.303Z,36.82
2018-05-03T20:16:32.912Z,36.59
2018-05-03T20:19:03.589Z,36.87
2018-05-03T20:21:33.730Z,37.14
2018-05-03T20:24:04.168Z,37.17
2018-05-03T20:26:34.780Z,36.84
2018-05-03T20:29:04.863Z,36.95
2018-05-03T20:31:35.306Z,36.83
2018-05-03T20:34:05.400Z,37.20
2018-05-03T20:36:36.007Z,37.10
2018-05-03T20:39:06.719Z,36.99
2018-05-03T20:41:36.860Z,37.08
2018-05-03T20:44:08.063Z,36.96
2018-05-03T20:46:38.139Z,36.52
2018-05-03T20:49:08.596Z,36.82
2018-05-03T20:51:39.422Z,36.72
2018-05-03T20:54:09.925Z,36.73
2018-05-03T20:56:40.043Z,36.19
2018-05-03T20:59:10.260Z,36.68
2018-05-03T21:01:40.332Z,36.54
2018-05-03T21:04:10.770Z,36.42
2018-05-03T21:06:40.847Z,36.33
2018-05-03T21:09:12.397Z,36.27
2018-05-03T21:11:42.649Z,36.21
2018-05-03T21:14:13.795Z,36.48
2018-05-03T21:16:44.422Z,36.26
2018-05-03T21:19:14.850Z,36.27
2018-05-03T21:21:45.686Z,36.33
2018-05-03T21:24:16.550Z,36.46
2018-05-03T21:26:46.942Z,36.44
2018-05-03T21:29:17.824Z,36.31
2018-05-03T21:31:49.255Z,36.50
2018-05-03T21:34:19.723Z,36.38
2018-05-03T21:36:49.901Z,36.51
2018-05-03T21:39:19.985Z,36.34
2018-05-03T21:41:50.875Z,36.33
2018-05-03T21:44:21.768Z,36.39
2018-05-03T21:46:53.672Z,36.35
2018-05-03T21:49:24.535Z,36.35
2018-05-03T21:51:55.231Z,36.23
2018-05-03T21:54:25.323Z,36.16
2018-05-03T21:56:56.540Z,36.32
2018-05-03T21:59:26.641Z,36.35
2018-05-03T22:01:57.151Z,36.37
2018-05-03T22:04:27.012Z,36.28
2018-05-03T22:06:57.469Z,36.21
2018-05-03T22:09:27.548Z,36.29
2018-05-03T22:11:58.245Z,36.22
2018-05-03T22:14:29.123Z,36.32
2018-05-03T22:16:59.548Z,36.38
2018-05-03T22:19:29.705Z,36.48
2018-05-03T22:22:00.013Z,36.44
2018-05-03T22:24:30.502Z,36.52
2018-05-03T22:27:00.562Z,36.39
2018-05-03T22:29:31.015Z,36.48
2018-05-03T22:32:01.108Z,36.51
2018-05-03T22:34:31.827Z,36.46
2018-05-03T22:37:02.663Z,36.52
2018-05-03T22:39:33.548Z,36.58
2018-05-03T22:42:04.242Z,36.55
2018-05-03T22:44:34.335Z,36.56
2018-05-03T22:47:05.491Z,36.56
2018-05-03T22:49:36.185Z,36.56
2018-05-03T22:52:06.349Z,36.71
2018-05-03T22:54:37.213Z,36.50
2018-05-03T22:57:07.679Z,36.59
2018-05-03T22:59:37.788Z,36.81
2018-05-03T23:02:08.956Z,36.74
2018-05-03T23:04:39.048Z,36.88
2018-05-03T23:07:09.451Z,37.01
2018-05-03T23:09:39.532Z,36.83
2018-05-03T23:12:09.942Z,36.96
2018-05-03T23:14:40.031Z,36.97
2018-05-03T23:17:10.634Z,36.86
2018-05-03T23:19:41.526Z,36.94
2018-05-03T23:22:11.691Z,36.97
2018-05-03T23:24:42.552Z,37.07
2018-05-03T23:27:13.160Z,37.15
2018-05-03T23:29:43.244Z,37.06
2018-05-03T23:32:13.859Z,37.17
2018-05-03T23:34:43.960Z,37.06
2018-05-03T23:37:14.555Z,36.97
2018-05-03T23:39:44.645Z,37.17
2018-05-03T23:42:15.829Z,37.32
2018-05-03T23:44:45.926Z,37.27
2018-05-03T23:47:17.299Z,37.42
2018-05-03T23:49:48.163Z,37.37
2018-05-03T23:52:18.604Z,37.35
2018-05-03T23:54:48.903Z,37.58
2018-05-03T23:57:19.303Z,37.38
2018-05-03T23:59:49.399Z,37.66
